sensor_id;sensor_type;location;lat;lon;timestamp;pressure;altitude;pressure_sealevel;temperature;humidity
12178;BME280;6152;48.728;9.256;2023-07-16T00:00:04;96928.34;;;19.12;100.00
12178;BME280;6152;48.728;9.256;2023-07-16T00:02:31;96943.78;;;19.07;100.00
12178;BME280;6152;48.728;9.256;2023-07-16T00:04:57;96956.75;;;19.00;100.00
12178;BME280;6152;48.728;9.256;2023-07-16T00:07:23;96951.47;;;19.00;100.00
12178;BME280;6152;48.728;9.256;2023-07-16T00:09:50;96955.38;;;18.96;100.00
12178;BME280;6152;48.728;9.256;2023-07-16T00:12:16;96938.34;;;18.91;100.00
12178;BME280;6152;48.728;9.256;2023-07-16T00:14:42;96944.22;;;18.85;100.00
12178;BME280;6152;48.728;9.256;2023-07-16T00:17:08;96941.19;;;18.80;100.00
12178;BME280;6152;48.728;9.256;2023-07-16T00:19:34;96955.38;;;18.79;100.00
12178;BME280;6152;48.728;9.256;2023-07-16T00:22:01;96943.88;;;18.70;100.00
12178;BME280;6152;48.728;9.256;2023-07-16T00:24:27;96937.78;;;18.70;100.00
12178;BME280;6152;48.728;9.256;2023-07-16T00:26:53;96948.91;;;18.63;100.00
12178;BME280;6152;48.728;9.256;2023-07-16T00:29:19;96958.94;;;18.60;100.00
12178;BME280;6152;48.728;9.256;2023-07-16T00:31:45;96957.13;;;18.60;100.00
12178;BME280;6152;48.728;9.256;2023-07-16T00:34:11;96969.19;;;18.63;100.00
12178;BME280;6152;48.728;9.256;2023-07-16T00:36:39;96976.66;;;18.67;100.00
12178;BME280;6152;48.728;9.256;2023-07-16T00:39:05;96977.78;;;18.65;100.00
12178;BME280;6152;48.728;9.256;2023-07-16T00:41:31;96970.56;;;18.67;100.00
12178;BME280;6152;48.728;9.256;2023-07-16T00:43:57;96977.31;;;18.70;100.00
12178;BME280;6152;48.728;9.256;2023-07-16T00:46:24;96976.38;;;18.71;100.00
12178;BME280;6152;48.728;9.256;2023-07-16T00:48:51;96983.59;;;18.69;100.00
12178;BME280;6152;48.728;9.256;2023-07-16T00:51:18;96981.34;;;18.74;100.00
12178;BME280;6152;48.728;9.256;2023-07-16T00:53:45;96965.22;;;18.77;100.00
12178;BME280;6152;48.728;9.256;2023-07-16T00:56:16;96968.44;;;18.71;100.00
12178;BME280;6152;48.728;9.256;2023-07-16T00:58:43;96987.75;;;18.71;100.00
12178;BME280;6152;48.728;9.256;2023-07-16T01:01:10;96982.34;;;18.63;100.00
12178;BME280;6152;48.728;9.256;2023-07-16T01:03:36;96959.75;;;18.60;100.00
12178;BME280;6152;48.728;9.256;2023-07-16T01:06:19;96972.53;;;18.55;100.00
12178;BME280;6152;48.728;9.256;2023-07-16T01:11:19;96992.38;;;18.59;100.00
12178;BME280;6152;48.728;9.256;2023-07-16T01:13:45;96995.84;;;18.60;100.00
12178;BME280;6152;48.728;9.256;2023-07-16T01:16:22;96998.34;;;18.61;100.00
12178;BME280;6152;48.728;9.256;2023-07-16T01:18:48;96998.47;;;18.60;100.00
12178;BME280;6152;48.728;9.256;2023-07-16T01:21:16;96999.97;;;18.62;100.00
12178;BME280;6152;48.728;9.256;2023-07-16T01:26:59;97003.06;;;18.48;100.00
12178;BME280;6152;48.728;9.256;2023-07-16T01:29:49;97005.88;;;18.37;100.00
12178;BME280;6152;48.728;9.256;2023-07-16T01:32:17;97006.00;;;18.36;100.00
12178;BME280;6152;48.728;9.256;2023-07-16T01:34:44;97012.69;;;18.30;100.00
12178;BME280;6152;48.728;9.256;2023-07-16T01:37:11;97018.69;;;18.23;100.00
12178;BME280;6152;48.728;9.256;2023-07-16T01:39:37;97022.00;;;18.15;100.00
12178;BME280;6152;48.728;9.256;2023-07-16T01:42:04;97019.25;;;18.07;100.00
12178;BME280;6152;48.728;9.256;2023-07-16T01:44:30;97027.88;;;17.99;100.00
12178;BME280;6152;48.728;9.256;2023-07-16T01:49:34;97020.25;;;17.77;100.00
12178;BME280;6152;48.728;9.256;2023-07-16T01:52:02;97017.19;;;17.72;100.00
12178;BME280;6152;48.728;9.256;2023-07-16T01:54:29;97007.50;;;17.73;100.00
12178;BME280;6152;48.728;9.256;2023-07-16T01:56:55;96998.78;;;17.72;100.00
12178;BME280;6152;48.728;9.256;2023-07-16T01:59:21;97007.09;;;17.67;100.00
12178;BME280;6152;48.728;9.256;2023-07-16T02:01:47;97011.25;;;17.70;100.00
12178;BME280;6152;48.728;9.256;2023-07-16T02:04:13;97002.69;;;17.68;100.00
12178;BME280;6152;48.728;9.256;2023-07-16T02:06:39;97008.78;;;17.69;100.00
12178;BME280;6152;48.728;9.256;2023-07-16T02:09:05;97013.22;;;17.68;100.00
12178;BME280;6152;48.728;9.256;2023-07-16T02:11:31;97010.41;;;17.70;100.00
12178;BME280;6152;48.728;9.256;2023-07-16T02:13:58;97008.06;;;17.66;100.00
12178;BME280;6152;48.728;9.256;2023-07-16T02:16:24;96997.41;;;17.68;100.00
12178;BME280;6152;48.728;9.256;2023-07-16T02:18:50;96998.25;;;17.69;100.00
12178;BME280;6152;48.728;9.256;2023-07-16T02:21:16;96999.50;;;17.64;100.00
12178;BME280;6152;48.728;9.256;2023-07-16T02:23:42;97011.53;;;17.67;100.00
12178;BME280;6152;48.728;9.256;2023-07-16T02:26:08;97037.03;;;17.66;100.00
12178;BME280;6152;48.728;9.256;2023-07-16T02:28:34;97045.06;;;17.65;100.00
12178;BME280;6152;48.728;9.256;2023-07-16T02:31:01;97025.53;;;17.67;100.00
12178;BME280;6152;48.728;9.256;2023-07-16T02:33:28;97023.75;;;17.68;100.00
12178;BME280;6152;48.728;9.256;2023-07-16T02:35:54;97006.16;;;17.69;100.00
12178;BME280;6152;48.728;9.256;2023-07-16T02:38:20;97022.91;;;17.67;100.00
12178;BME280;6152;48.728;9.256;2023-07-16T02:40:47;97070.56;;;17.64;100.00
12178;BME280;6152;48.728;9.256;2023-07-16T02:43:14;97062.22;;;17.59;100.00
12178;BME280;6152;48.728;9.256;2023-07-16T02:45:41;97044.19;;;17.55;100.00
12178;BME280;6152;48.728;9.256;2023-07-16T02:48:07;97062.50;;;17.56;100.00
12178;BME280;6152;48.728;9.256;2023-07-16T02:50:35;97058.91;;;17.57;100.00
12178;BME280;6152;48.728;9.256;2023-07-16T02:53:03;97053.91;;;17.54;100.00
12178;BME280;6152;48.728;9.256;2023-07-16T02:55:29;97053.34;;;17.51;100.00
12178;BME280;6152;48.728;9.256;2023-07-16T02:57:55;97067.19;;;17.53;100.00
12178;BME280;6152;48.728;9.256;2023-07-16T03:00:22;97071.47;;;17.44;100.00
12178;BME280;6152;48.728;9.256;2023-07-16T03:02:48;97054.41;;;17.39;100.00
12178;BME280;6152;48.728;9.256;2023-07-16T03:05:16;97065.22;;;17.36;100.00
12178;BME280;6152;48.728;9.256;2023-07-16T03:07:43;97071.59;;;17.33;100.00
12178;BME280;6152;48.728;9.256;2023-07-16T03:10:09;97084.31;;;17.28;100.00
12178;BME280;6152;48.728;9.256;2023-07-16T03:12:35;97067.84;;;17.26;100.00
12178;BME280;6152;48.728;9.256;2023-07-16T03:15:01;97039.75;;;17.27;100.00
12178;BME280;6152;48.728;9.256;2023-07-16T03:17:27;97059.94;;;17.26;100.00
12178;BME280;6152;48.728;9.256;2023-07-16T03:19:54;97091.22;;;17.20;100.00
12178;BME280;6152;48.728;9.256;2023-07-16T03:22:20;97103.66;;;17.17;100.00
12178;BME280;6152;48.728;9.256;2023-07-16T03:24:46;97109.75;;;17.18;100.00
12178;BME280;6152;48.728;9.256;2023-07-16T03:27:12;97129.13;;;17.17;100.00
12178;BME280;6152;48.728;9.256;2023-07-16T03:29:38;97126.06;;;17.12;100.00
12178;BME280;6152;48.728;9.256;2023-07-16T03:32:04;97118.44;;;17.09;100.00
12178;BME280;6152;48.728;9.256;2023-07-16T03:34:30;97112.09;;;17.11;100.00
12178;BME280;6152;48.728;9.256;2023-07-16T03:36:56;97116.25;;;17.14;100.00
12178;BME280;6152;48.728;9.256;2023-07-16T03:39:23;97117.22;;;17.13;100.00
12178;BME280;6152;48.728;9.256;2023-07-16T03:41:49;97111.97;;;17.13;100.00
12178;BME280;6152;48.728;9.256;2023-07-16T03:44:15;97124.84;;;17.16;100.00
12178;BME280;6152;48.728;9.256;2023-07-16T03:46:41;97139.06;;;17.13;100.00
12178;BME280;6152;48.728;9.256;2023-07-16T03:49:10;97127.47;;;17.16;100.00
12178;BME280;6152;48.728;9.256;2023-07-16T03:51:36;97152.66;;;17.18;100.00
12178;BME280;6152;48.728;9.256;2023-07-16T03:54:02;97144.66;;;17.20;100.00
12178;BME280;6152;48.728;9.256;2023-07-16T03:56:29;97150.59;;;17.22;100.00
12178;BME280;6152;48.728;9.256;2023-07-16T03:58:55;97153.22;;;17.22;100.00
12178;BME280;6152;48.728;9.256;2023-07-16T04:01:21;97164.59;;;17.23;100.00
12178;BME280;6152;48.728;9.256;2023-07-16T04:03:47;97167.91;;;17.25;100.00
12178;BME280;6152;48.728;9.256;2023-07-16T04:06:13;97164.75;;;17.31;100.00
12178;BME280;6152;48.728;9.256;2023-07-16T04:08:39;97165.84;;;17.28;100.00
12178;BME280;6152;48.728;9.256;2023-07-16T04:11:06;97164.31;;;17.26;100.00
12178;BME280;6152;48.728;9.256;2023-07-16T04:13:32;97152.97;;;17.25;100.00
12178;BME280;6152;48.728;9.256;2023-07-16T04:15:58;97151.06;;;17.27;100.00
12178;BME280;6152;48.728;9.256;2023-07-16T04:18:25;97148.97;;;17.31;100.00
12178;BME280;6152;48.728;9.256;2023-07-16T04:20:52;97146.91;;;17.34;100.00
12178;BME280;6152;48.728;9.256;2023-07-16T04:23:19;97131.81;;;17.36;100.00
12178;BME280;6152;48.728;9.256;2023-07-16T04:25:45;97148.03;;;17.41;100.00
12178;BME280;6152;48.728;9.256;2023-07-16T04:28:13;97152.47;;;17.41;100.00
12178;BME280;6152;48.728;9.256;2023-07-16T04:30:39;97153.28;;;17.41;100.00
12178;BME280;6152;48.728;9.256;2023-07-16T04:33:05;97167.28;;;17.42;100.00
12178;BME280;6152;48.728;9.256;2023-07-16T04:35:32;97182.78;;;17.45;100.00
12178;BME280;6152;48.728;9.256;2023-07-16T04:37:59;97184.19;;;17.39;100.00
12178;BME280;6152;48.728;9.256;2023-07-16T04:40:25;97183.50;;;17.37;100.00
12178;BME280;6152;48.728;9.256;2023-07-16T04:42:51;97197.34;;;17.39;100.00
12178;BME280;6152;48.728;9.256;2023-07-16T04:45:17;97195.09;;;17.35;100.00
12178;BME280;6152;48.728;9.256;2023-07-16T04:47:44;97198.56;;;17.35;100.00
12178;BME280;6152;48.728;9.256;2023-07-16T04:50:10;97188.75;;;17.37;100.00
12178;BME280;6152;48.728;9.256;2023-07-16T04:52:37;97191.81;;;17.42;100.00
12178;BME280;6152;48.728;9.256;2023-07-16T04:55:03;97192.09;;;17.49;100.00
12178;BME280;6152;48.728;9.256;2023-07-16T04:57:30;97183.25;;;17.50;100.00
12178;BME280;6152;48.728;9.256;2023-07-16T04:59:56;97192.94;;;17.49;100.00
12178;BME280;6152;48.728;9.256;2023-07-16T05:02:22;97187.66;;;17.49;100.00
12178;BME280;6152;48.728;9.256;2023-07-16T05:04:48;97200.97;;;17.48;100.00
12178;BME280;6152;48.728;9.256;2023-07-16T05:07:14;97204.00;;;17.43;100.00
12178;BME280;6152;48.728;9.256;2023-07-16T05:09:42;97206.09;;;17.49;100.00
12178;BME280;6152;48.728;9.256;2023-07-16T05:12:08;97206.53;;;17.54;100.00
12178;BME280;6152;48.728;9.256;2023-07-16T05:14:44;97207.13;;;17.58;100.00
12178;BME280;6152;48.728;9.256;2023-07-16T05:17:12;97212.97;;;17.61;100.00
12178;BME280;6152;48.728;9.256;2023-07-16T05:19:38;97211.47;;;17.69;100.00
12178;BME280;6152;48.728;9.256;2023-07-16T05:22:04;97209.06;;;17.65;100.00
12178;BME280;6152;48.728;9.256;2023-07-16T05:24:31;97205.75;;;17.63;100.00
12178;BME280;6152;48.728;9.256;2023-07-16T05:26:58;97217.13;;;17.64;100.00
12178;BME280;6152;48.728;9.256;2023-07-16T05:29:24;97211.09;;;17.52;100.00
12178;BME280;6152;48.728;9.256;2023-07-16T05:31:50;97204.50;;;17.58;100.00
12178;BME280;6152;48.728;9.256;2023-07-16T05:34:16;97206.78;;;17.51;100.00
12178;BME280;6152;48.728;9.256;2023-07-16T05:36:43;97219.25;;;17.49;100.00
12178;BME280;6152;48.728;9.256;2023-07-16T05:39:10;97224.22;;;17.43;100.00
12178;BME280;6152;48.728;9.256;2023-07-16T05:41:39;97227.13;;;17.49;100.00
12178;BME280;6152;48.728;9.256;2023-07-16T05:44:06;97227.84;;;17.51;100.00
12178;BME280;6152;48.728;9.256;2023-07-16T05:46:33;97233.81;;;17.53;100.00
12178;BME280;6152;48.728;9.256;2023-07-16T05:49:00;97242.16;;;17.58;100.00
12178;BME280;6152;48.728;9.256;2023-07-16T05:51:26;97247.88;;;17.63;100.00
12178;BME280;6152;48.728;9.256;2023-07-16T05:53:52;97241.53;;;17.76;100.00
12178;BME280;6152;48.728;9.256;2023-07-16T05:56:18;97231.59;;;17.89;100.00
12178;BME280;6152;48.728;9.256;2023-07-16T05:58:44;97238.13;;;18.04;100.00
12178;BME280;6152;48.728;9.256;2023-07-16T06:01:11;97229.44;;;18.23;100.00
12178;BME280;6152;48.728;9.256;2023-07-16T06:03:37;97229.31;;;18.43;100.00
12178;BME280;6152;48.728;9.256;2023-07-16T06:06:03;97226.41;;;18.46;100.00
12178;BME280;6152;48.728;9.256;2023-07-16T06:08:29;97224.44;;;18.48;100.00
12178;BME280;6152;48.728;9.256;2023-07-16T06:10:55;97228.50;;;18.52;100.00
12178;BME280;6152;48.728;9.256;2023-07-16T06:13:22;97228.59;;;18.41;100.00
12178;BME280;6152;48.728;9.256;2023-07-16T06:15:48;97241.53;;;18.44;100.00
12178;BME280;6152;48.728;9.256;2023-07-16T06:18:14;97246.97;;;18.52;100.00
12178;BME280;6152;48.728;9.256;2023-07-16T06:20:46;97246.81;;;18.44;100.00
12178;BME280;6152;48.728;9.256;2023-07-16T06:23:15;97260.38;;;18.30;100.00
12178;BME280;6152;48.728;9.256;2023-07-16T06:25:42;97255.25;;;18.38;100.00
12178;BME280;6152;48.728;9.256;2023-07-16T06:28:14;97242.63;;;18.42;100.00
12178;BME280;6152;48.728;9.256;2023-07-16T06:30:40;97239.84;;;18.43;100.00
12178;BME280;6152;48.728;9.256;2023-07-16T06:33:07;97243.34;;;18.44;100.00
12178;BME280;6152;48.728;9.256;2023-07-16T06:35:33;97237.78;;;18.47;100.00
12178;BME280;6152;48.728;9.256;2023-07-16T06:37:59;97233.09;;;18.50;100.00
12178;BME280;6152;48.728;9.256;2023-07-16T06:40:25;97231.28;;;18.60;100.00
12178;BME280;6152;48.728;9.256;2023-07-16T06:42:52;97238.50;;;18.68;100.00
12178;BME280;6152;48.728;9.256;2023-07-16T06:45:18;97240.03;;;18.71;100.00
12178;BME280;6152;48.728;9.256;2023-07-16T06:47:44;97234.88;;;18.79;100.00
12178;BME280;6152;48.728;9.256;2023-07-16T06:50:10;97229.31;;;18.91;100.00
12178;BME280;6152;48.728;9.256;2023-07-16T06:52:36;97236.63;;;19.07;100.00
12178;BME280;6152;48.728;9.256;2023-07-16T06:55:02;97240.91;;;19.27;100.00
12178;BME280;6152;48.728;9.256;2023-07-16T06:57:29;97237.94;;;19.49;100.00
12178;BME280;6152;48.728;9.256;2023-07-16T06:59:55;97247.06;;;19.55;100.00
12178;BME280;6152;48.728;9.256;2023-07-16T07:02:21;97247.47;;;19.60;100.00
12178;BME280;6152;48.728;9.256;2023-07-16T07:04:47;97252.34;;;19.55;100.00
12178;BME280;6152;48.728;9.256;2023-07-16T07:07:13;97253.38;;;19.44;100.00
12178;BME280;6152;48.728;9.256;2023-07-16T07:09:39;97263.78;;;19.36;100.00
12178;BME280;6152;48.728;9.256;2023-07-16T07:12:05;97255.44;;;19.31;100.00
12178;BME280;6152;48.728;9.256;2023-07-16T07:14:33;97253.75;;;19.49;100.00
12178;BME280;6152;48.728;9.256;2023-07-16T07:16:59;97237.38;;;19.36;100.00
12178;BME280;6152;48.728;9.256;2023-07-16T07:19:26;97238.34;;;19.54;100.00
12178;BME280;6152;48.728;9.256;2023-07-16T07:21:52;97239.97;;;19.65;100.00
12178;BME280;6152;48.728;9.256;2023-07-16T07:24:18;97249.03;;;19.80;100.00
12178;BME280;6152;48.728;9.256;2023-07-16T07:26:44;97232.47;;;19.88;100.00
12178;BME280;6152;48.728;9.256;2023-07-16T07:29:10;97237.94;;;20.04;100.00
12178;BME280;6152;48.728;9.256;2023-07-16T07:31:36;97228.34;;;20.30;100.00
12178;BME280;6152;48.728;9.256;2023-07-16T07:34:02;97240.34;;;20.60;100.00
12178;BME280;6152;48.728;9.256;2023-07-16T07:36:29;97252.50;;;20.71;100.00
12178;BME280;6152;48.728;9.256;2023-07-16T07:38:55;97259.22;;;20.83;100.00
12178;BME280;6152;48.728;9.256;2023-07-16T07:41:21;97256.09;;;21.05;100.00
12178;BME280;6152;48.728;9.256;2023-07-16T07:43:47;97258.84;;;21.13;100.00
12178;BME280;6152;48.728;9.256;2023-07-16T07:46:13;97249.34;;;21.28;100.00
12178;BME280;6152;48.728;9.256;2023-07-16T07:48:39;97259.34;;;21.42;100.00
12178;BME280;6152;48.728;9.256;2023-07-16T07:51:05;97263.69;;;21.51;100.00
12178;BME280;6152;48.728;9.256;2023-07-16T07:53:33;97264.03;;;21.23;100.00
12178;BME280;6152;48.728;9.256;2023-07-16T07:55:59;97259.50;;;21.15;100.00
12178;BME280;6152;48.728;9.256;2023-07-16T07:58:25;97254.00;;;21.34;100.00
12178;BME280;6152;48.728;9.256;2023-07-16T08:00:51;97267.50;;;21.83;100.00
12178;BME280;6152;48.728;9.256;2023-07-16T08:03:18;97262.66;;;21.96;100.00
12178;BME280;6152;48.728;9.256;2023-07-16T08:05:44;97266.59;;;21.92;100.00
12178;BME280;6152;48.728;9.256;2023-07-16T08:08:10;97273.25;;;21.96;100.00
12178;BME280;6152;48.728;9.256;2023-07-16T08:10:36;97277.13;;;21.84;100.00
12178;BME280;6152;48.728;9.256;2023-07-16T08:13:02;97280.47;;;21.86;100.00
12178;BME280;6152;48.728;9.256;2023-07-16T08:15:28;97275.47;;;22.25;100.00
12178;BME280;6152;48.728;9.256;2023-07-16T08:17:54;97274.88;;;22.55;100.00
12178;BME280;6152;48.728;9.256;2023-07-16T08:20:22;97288.16;;;22.55;100.00
12178;BME280;6152;48.728;9.256;2023-07-16T08:22:48;97274.13;;;22.87;100.00
12178;BME280;6152;48.728;9.256;2023-07-16T08:25:14;97269.16;;;23.16;94.92
12178;BME280;6152;48.728;9.256;2023-07-16T08:27:40;97269.41;;;23.70;84.42
12178;BME280;6152;48.728;9.256;2023-07-16T08:30:07;97251.09;;;23.83;76.37
12178;BME280;6152;48.728;9.256;2023-07-16T08:32:33;97261.47;;;24.17;77.88
12178;BME280;6152;48.728;9.256;2023-07-16T08:34:59;97245.72;;;24.60;78.13
12178;BME280;6152;48.728;9.256;2023-07-16T08:37:25;97236.75;;;24.61;68.31
12178;BME280;6152;48.728;9.256;2023-07-16T08:39:54;97239.69;;;24.67;77.50
12178;BME280;6152;48.728;9.256;2023-07-16T08:42:21;97238.84;;;25.11;70.04
12178;BME280;6152;48.728;9.256;2023-07-16T08:44:49;97254.00;;;25.11;62.48
12178;BME280;6152;48.728;9.256;2023-07-16T08:47:16;97259.53;;;25.24;62.33
12178;BME280;6152;48.728;9.256;2023-07-16T08:49:53;97260.69;;;25.07;61.71
12178;BME280;6152;48.728;9.256;2023-07-16T08:52:20;97261.19;;;25.25;61.07
12178;BME280;6152;48.728;9.256;2023-07-16T08:54:46;97263.72;;;24.81;65.69
12178;BME280;6152;48.728;9.256;2023-07-16T08:57:13;97265.31;;;24.68;63.08
12178;BME280;6152;48.728;9.256;2023-07-16T08:59:40;97265.59;;;25.18;61.51
12178;BME280;6152;48.728;9.256;2023-07-16T09:02:07;97263.47;;;25.66;60.50
12178;BME280;6152;48.728;9.256;2023-07-16T09:04:33;97250.22;;;26.16;58.56
12178;BME280;6152;48.728;9.256;2023-07-16T09:07:00;97257.59;;;26.86;55.16
12178;BME280;6152;48.728;9.256;2023-07-16T09:09:26;97267.81;;;27.25;51.28
12178;BME280;6152;48.728;9.256;2023-07-16T09:11:52;97268.50;;;26.70;50.98
12178;BME280;6152;48.728;9.256;2023-07-16T09:14:19;97269.72;;;27.93;48.78
12178;BME280;6152;48.728;9.256;2023-07-16T09:16:52;97263.78;;;29.71;44.51
12178;BME280;6152;48.728;9.256;2023-07-16T09:19:19;97242.75;;;29.62;42.31
12178;BME280;6152;48.728;9.256;2023-07-16T09:21:49;97256.00;;;30.65;39.14
12178;BME280;6152;48.728;9.256;2023-07-16T09:24:16;97254.28;;;31.40;37.95
12178;BME280;6152;48.728;9.256;2023-07-16T09:26:52;97251.88;;;31.57;36.76
12178;BME280;6152;48.728;9.256;2023-07-16T09:29:19;97249.22;;;31.75;36.50
12178;BME280;6152;48.728;9.256;2023-07-16T09:32:00;97251.19;;;32.52;34.41
12178;BME280;6152;48.728;9.256;2023-07-16T09:34:29;97246.59;;;33.77;34.16
12178;BME280;6152;48.728;9.256;2023-07-16T09:36:57;97249.97;;;32.36;34.14
12178;BME280;6152;48.728;9.256;2023-07-16T09:39:25;97237.97;;;31.60;36.12
12178;BME280;6152;48.728;9.256;2023-07-16T09:41:52;97233.63;;;31.77;35.96
12178;BME280;6152;48.728;9.256;2023-07-16T09:44:19;97247.06;;;33.85;33.52
12178;BME280;6152;48.728;9.256;2023-07-16T09:46:46;97241.66;;;35.38;30.81
12178;BME280;6152;48.728;9.256;2023-07-16T09:49:13;97238.94;;;35.38;31.02
12178;BME280;6152;48.728;9.256;2023-07-16T09:51:40;97239.88;;;34.42;30.06
12178;BME280;6152;48.728;9.256;2023-07-16T09:54:09;97245.78;;;34.39;31.70
12178;BME280;6152;48.728;9.256;2023-07-16T09:56:46;97240.25;;;32.95;32.52
12178;BME280;6152;48.728;9.256;2023-07-16T09:59:16;97226.09;;;34.04;30.42
12178;BME280;6152;48.728;9.256;2023-07-16T10:01:42;97226.31;;;34.26;31.05
12178;BME280;6152;48.728;9.256;2023-07-16T10:04:19;97224.00;;;34.46;29.75
12178;BME280;6152;48.728;9.256;2023-07-16T10:06:58;97230.63;;;34.95;28.96
12178;BME280;6152;48.728;9.256;2023-07-16T10:17:22;97228.81;;;33.34;33.01
12178;BME280;6152;48.728;9.256;2023-07-16T10:22:45;97221.88;;;34.08;30.37
12178;BME280;6152;48.728;9.256;2023-07-16T10:25:32;97219.28;;;35.26;28.43
12178;BME280;6152;48.728;9.256;2023-07-16T10:27:58;97224.78;;;34.30;29.23
12178;BME280;6152;48.728;9.256;2023-07-16T10:30:24;97227.47;;;35.31;28.82
12178;BME280;6152;48.728;9.256;2023-07-16T10:33:13;97227.94;;;35.62;27.12
12178;BME280;6152;48.728;9.256;2023-07-16T10:35:45;97222.53;;;35.12;28.30
12178;BME280;6152;48.728;9.256;2023-07-16T10:38:11;97203.75;;;35.38;28.08
12178;BME280;6152;48.728;9.256;2023-07-16T10:40:44;97211.72;;;34.55;28.64
12178;BME280;6152;48.728;9.256;2023-07-16T10:43:12;97207.84;;;36.39;27.47
12178;BME280;6152;48.728;9.256;2023-07-16T10:45:38;97211.09;;;36.15;27.13
12178;BME280;6152;48.728;9.256;2023-07-16T10:48:05;97212.81;;;36.96;26.78
12178;BME280;6152;48.728;9.256;2023-07-16T10:50:34;97203.13;;;35.03;27.46
12178;BME280;6152;48.728;9.256;2023-07-16T10:53:01;97196.66;;;33.10;30.70
12178;BME280;6152;48.728;9.256;2023-07-16T10:55:29;97192.22;;;33.27;29.85
12178;BME280;6152;48.728;9.256;2023-07-16T10:57:56;97199.06;;;35.17;28.30
12178;BME280;6152;48.728;9.256;2023-07-16T11:00:22;97205.94;;;35.08;27.29
12178;BME280;6152;48.728;9.256;2023-07-16T11:02:52;97199.31;;;34.99;28.51
12178;BME280;6152;48.728;9.256;2023-07-16T11:05:20;97197.13;;;36.06;27.82
12178;BME280;6152;48.728;9.256;2023-07-16T11:07:49;97200.03;;;34.78;28.74
12178;BME280;6152;48.728;9.256;2023-07-16T11:10:16;97204.13;;;32.96;30.97
12178;BME280;6152;48.728;9.256;2023-07-16T11:12:43;97204.84;;;31.77;32.06
12178;BME280;6152;48.728;9.256;2023-07-16T11:15:09;97207.25;;;33.23;30.17
12178;BME280;6152;48.728;9.256;2023-07-16T11:17:38;97203.50;;;34.62;28.49
12178;BME280;6152;48.728;9.256;2023-07-16T11:20:07;97209.63;;;35.69;27.68
12178;BME280;6152;48.728;9.256;2023-07-16T11:22:37;97197.94;;;35.13;27.34
12178;BME280;6152;48.728;9.256;2023-07-16T11:25:10;97195.50;;;34.67;28.11
12178;BME280;6152;48.728;9.256;2023-07-16T11:27:36;97197.13;;;35.13;27.98
12178;BME280;6152;48.728;9.256;2023-07-16T11:30:02;97196.78;;;35.09;27.37
12178;BME280;6152;48.728;9.256;2023-07-16T11:32:41;97202.03;;;36.53;26.47
12178;BME280;6152;48.728;9.256;2023-07-16T11:35:17;97210.97;;;36.75;25.94
12178;BME280;6152;48.728;9.256;2023-07-16T11:37:45;97190.88;;;36.76;25.70
12178;BME280;6152;48.728;9.256;2023-07-16T11:40:15;97193.81;;;34.94;28.11
12178;BME280;6152;48.728;9.256;2023-07-16T11:42:42;97192.81;;;34.83;27.89
12178;BME280;6152;48.728;9.256;2023-07-16T11:45:22;97191.06;;;34.49;28.92
12178;BME280;6152;48.728;9.256;2023-07-16T11:47:54;97195.63;;;33.45;29.48
12178;BME280;6152;48.728;9.256;2023-07-16T11:50:21;97189.03;;;32.65;31.06
12178;BME280;6152;48.728;9.256;2023-07-16T11:52:54;97179.53;;;32.33;31.66
12178;BME280;6152;48.728;9.256;2023-07-16T11:55:21;97183.03;;;31.42;31.90
12178;BME280;6152;48.728;9.256;2023-07-16T11:57:47;97184.03;;;30.42;33.78
12178;BME280;6152;48.728;9.256;2023-07-16T12:00:13;97179.72;;;30.97;34.30
12178;BME280;6152;48.728;9.256;2023-07-16T12:02:40;97185.41;;;32.41;32.32
12178;BME280;6152;48.728;9.256;2023-07-16T12:05:06;97169.75;;;33.03;31.39
12178;BME280;6152;48.728;9.256;2023-07-16T12:07:33;97168.19;;;32.72;31.05
12178;BME280;6152;48.728;9.256;2023-07-16T12:10:00;97174.91;;;32.51;32.02
12178;BME280;6152;48.728;9.256;2023-07-16T12:12:27;97165.78;;;31.50;34.18
12178;BME280;6152;48.728;9.256;2023-07-16T12:14:53;97161.03;;;32.36;32.87
12178;BME280;6152;48.728;9.256;2023-07-16T12:17:19;97148.53;;;32.95;31.11
12178;BME280;6152;48.728;9.256;2023-07-16T12:19:45;97156.00;;;31.92;32.37
12178;BME280;6152;48.728;9.256;2023-07-16T12:22:11;97153.66;;;30.35;34.42
12178;BME280;6152;48.728;9.256;2023-07-16T12:24:37;97144.94;;;29.44;37.05
12178;BME280;6152;48.728;9.256;2023-07-16T12:27:04;97133.47;;;28.98;36.68
12178;BME280;6152;48.728;9.256;2023-07-16T12:29:30;97145.38;;;29.22;37.90
12178;BME280;6152;48.728;9.256;2023-07-16T12:31:56;97142.28;;;29.18;37.64
12178;BME280;6152;48.728;9.256;2023-07-16T12:34:22;97139.66;;;28.79;37.08
12178;BME280;6152;48.728;9.256;2023-07-16T12:36:49;97138.63;;;28.80;39.20
12178;BME280;6152;48.728;9.256;2023-07-16T12:39:15;97134.66;;;28.63;39.58
12178;BME280;6152;48.728;9.256;2023-07-16T12:41:43;97133.88;;;28.69;40.49
12178;BME280;6152;48.728;9.256;2023-07-16T12:44:09;97140.50;;;27.99;40.60
12178;BME280;6152;48.728;9.256;2023-07-16T12:46:35;97137.63;;;27.53;41.67
12178;BME280;6152;48.728;9.256;2023-07-16T12:49:02;97144.72;;;27.74;40.85
12178;BME280;6152;48.728;9.256;2023-07-16T12:51:28;97135.75;;;28.01;42.35
12178;BME280;6152;48.728;9.256;2023-07-16T12:53:54;97140.19;;;27.68;41.32
12178;BME280;6152;48.728;9.256;2023-07-16T12:56:20;97143.56;;;27.48;41.46
12178;BME280;6152;48.728;9.256;2023-07-16T12:58:48;97140.63;;;27.78;42.66
12178;BME280;6152;48.728;9.256;2023-07-16T13:01:14;97132.31;;;27.59;42.11
12178;BME280;6152;48.728;9.256;2023-07-16T13:03:40;97146.91;;;26.95;44.69
12178;BME280;6152;48.728;9.256;2023-07-16T13:06:06;97141.53;;;26.88;44.88
12178;BME280;6152;48.728;9.256;2023-07-16T13:08:32;97144.13;;;27.03;44.20
12178;BME280;6152;48.728;9.256;2023-07-16T13:10:58;97141.97;;;26.92;44.27
12178;BME280;6152;48.728;9.256;2023-07-16T13:13:25;97132.97;;;26.50;45.02
12178;BME280;6152;48.728;9.256;2023-07-16T13:15:56;97128.84;;;26.76;47.24
12178;BME280;6152;48.728;9.256;2023-07-16T13:18:23;97133.97;;;26.92;44.54
12178;BME280;6152;48.728;9.256;2023-07-16T13:20:49;97124.19;;;27.05;46.10
12178;BME280;6152;48.728;9.256;2023-07-16T13:23:15;97117.84;;;26.36;45.28